sensor_id;sensor_type;location;lat;lon;timestamp;temperature;humidity
74081;SHT31;62438;52.228;6.864;2023-01-09T00:00:55;7.78;95.76
74081;SHT31;62438;52.228;6.864;2023-01-09T00:02:55;7.79;95.63
74081;SHT31;62438;52.228;6.864;2023-01-09T00:04:56;7.81;96.13
74081;SHT31;62438;52.228;6.864;2023-01-09T00:06:56;7.84;95.77
74081;SHT31;62438;52.228;6.864;2023-01-09T00:08:57;7.86;95.91
74081;SHT31;62438;52.228;6.864;2023-01-09T00:10:57;7.77;97.29
74081;SHT31;62438;52.228;6.864;2023-01-09T00:12:58;7.79;97.07
74081;SHT31;62438;52.228;6.864;2023-01-09T00:14:58;7.75;97.19
74081;SHT31;62438;52.228;6.864;2023-01-09T00:16:59;7.73;97.85
74081;SHT31;62438;52.228;6.864;2023-01-09T00:18:59;7.71;98.64
74081;SHT31;62438;52.228;6.864;2023-01-09T00:21:06;7.71;99.27
74081;SHT31;62438;52.228;6.864;2023-01-09T00:23:10;7.71;98.97
74081;SHT31;62438;52.228;6.864;2023-01-09T00:25:13;7.73;98.01
74081;SHT31;62438;52.228;6.864;2023-01-09T00:27:14;7.70;98.40
74081;SHT31;62438;52.228;6.864;2023-01-09T00:29:14;7.70;98.66
74081;SHT31;62438;52.228;6.864;2023-01-09T00:31:15;7.74;98.41
74081;SHT31;62438;52.228;6.864;2023-01-09T00:33:16;7.75;98.54
74081;SHT31;62438;52.228;6.864;2023-01-09T00:35:18;7.79;98.38
74081;SHT31;62438;52.228;6.864;2023-01-09T00:37:19;7.77;98.66
74081;SHT31;62438;52.228;6.864;2023-01-09T00:39:22;7.74;98.49
74081;SHT31;62438;52.228;6.864;2023-01-09T00:41:26;7.81;97.49
74081;SHT31;62438;52.228;6.864;2023-01-09T00:43:30;7.79;97.58
74081;SHT31;62438;52.228;6.864;2023-01-09T00:45:31;7.79;97.67
74081;SHT31;62438;52.228;6.864;2023-01-09T00:47:36;7.78;97.48
74081;SHT31;62438;52.228;6.864;2023-01-09T00:49:38;7.75;97.56
74081;SHT31;62438;52.228;6.864;2023-01-09T00:51:40;7.74;97.59
74081;SHT31;62438;52.228;6.864;2023-01-09T00:53:41;7.75;97.36
74081;SHT31;62438;52.228;6.864;2023-01-09T00:55:42;7.75;97.40
74081;SHT31;62438;52.228;6.864;2023-01-09T00:57:44;7.73;97.97
74081;SHT31;62438;52.228;6.864;2023-01-09T00:59:45;7.73;97.93
74081;SHT31;62438;52.228;6.864;2023-01-09T01:01:45;7.64;98.53
74081;SHT31;62438;52.228;6.864;2023-01-09T01:03:45;7.64;98.30
74081;SHT31;62438;52.228;6.864;2023-01-09T01:05:46;7.60;98.63
74081;SHT31;62438;52.228;6.864;2023-01-09T01:08:13;7.64;98.10
74081;SHT31;62438;52.228;6.864;2023-01-09T01:10:19;7.60;98.54
74081;SHT31;62438;52.228;6.864;2023-01-09T01:12:20;7.57;98.31
74081;SHT31;62438;52.228;6.864;2023-01-09T01:14:20;7.61;98.33
74081;SHT31;62438;52.228;6.864;2023-01-09T01:16:21;7.58;98.62
74081;SHT31;62438;52.228;6.864;2023-01-09T01:18:21;7.57;98.29
74081;SHT31;62438;52.228;6.864;2023-01-09T01:20:22;7.54;98.51
74081;SHT31;62438;52.228;6.864;2023-01-09T01:22:22;7.58;98.22
74081;SHT31;62438;52.228;6.864;2023-01-09T01:24:23;7.56;98.33
74081;SHT31;62438;52.228;6.864;2023-01-09T01:26:23;7.54;98.58
74081;SHT31;62438;52.228;6.864;2023-01-09T01:28:23;7.54;98.47
74081;SHT31;62438;52.228;6.864;2023-01-09T01:30:24;7.53;98.35
74081;SHT31;62438;52.228;6.864;2023-01-09T01:32:26;7.46;98.71
74081;SHT31;62438;52.228;6.864;2023-01-09T01:34:27;7.48;98.39
74081;SHT31;62438;52.228;6.864;2023-01-09T01:36:28;7.44;98.62
74081;SHT31;62438;52.228;6.864;2023-01-09T01:38:29;7.42;98.55
74081;SHT31;62438;52.228;6.864;2023-01-09T01:40:30;7.42;98.35
74081;SHT31;62438;52.228;6.864;2023-01-09T01:42:30;7.40;98.44
74081;SHT31;62438;52.228;6.864;2023-01-09T01:46:54;7.34;98.65
74081;SHT31;62438;52.228;6.864;2023-01-09T01:49:16;7.34;98.50
74081;SHT31;62438;52.228;6.864;2023-01-09T01:51:21;7.36;98.39
74081;SHT31;62438;52.228;6.864;2023-01-09T01:53:30;7.31;98.68
74081;SHT31;62438;52.228;6.864;2023-01-09T01:55:35;7.26;98.68
74081;SHT31;62438;52.228;6.864;2023-01-09T01:57:36;7.26;98.50
74081;SHT31;62438;52.228;6.864;2023-01-09T01:59:45;7.22;98.62
74081;SHT31;62438;52.228;6.864;2023-01-09T02:01:56;7.17;98.45
74081;SHT31;62438;52.228;6.864;2023-01-09T02:03:58;7.16;98.33
74081;SHT31;62438;52.228;6.864;2023-01-09T02:05:59;7.10;98.34
74081;SHT31;62438;52.228;6.864;2023-01-09T02:08:00;7.15;98.26
74081;SHT31;62438;52.228;6.864;2023-01-09T02:10:00;7.06;98.15
74081;SHT31;62438;52.228;6.864;2023-01-09T02:12:01;7.05;98.20
74081;SHT31;62438;52.228;6.864;2023-01-09T02:14:02;6.98;98.57
74081;SHT31;62438;52.228;6.864;2023-01-09T02:16:28;6.98;98.46
74081;SHT31;62438;52.228;6.864;2023-01-09T02:18:47;6.92;98.18
74081;SHT31;62438;52.228;6.864;2023-01-09T02:21:05;6.85;98.50
74081;SHT31;62438;52.228;6.864;2023-01-09T02:40:25;6.58;97.99
74081;SHT31;62438;52.228;6.864;2023-01-09T02:42:27;6.57;97.55
74081;SHT31;62438;52.228;6.864;2023-01-09T02:44:30;6.49;98.17
74081;SHT31;62438;52.228;6.864;2023-01-09T02:46:31;6.47;97.86
74081;SHT31;62438;52.228;6.864;2023-01-09T02:48:32;6.42;98.03
74081;SHT31;62438;52.228;6.864;2023-01-09T02:50:49;6.40;97.86
74081;SHT31;62438;52.228;6.864;2023-01-09T02:55:27;6.33;98.04
74081;SHT31;62438;52.228;6.864;2023-01-09T03:09:25;6.05;98.08
74081;SHT31;62438;52.228;6.864;2023-01-09T03:11:30;6.00;98.23
74081;SHT31;62438;52.228;6.864;2023-01-09T03:14:00;5.95;98.40
74081;SHT31;62438;52.228;6.864;2023-01-09T03:16:01;5.86;98.53
74081;SHT31;62438;52.228;6.864;2023-01-09T03:18:06;5.83;98.51
74081;SHT31;62438;52.228;6.864;2023-01-09T03:20:09;5.85;98.37
74081;SHT31;62438;52.228;6.864;2023-01-09T03:22:11;5.78;98.71
74081;SHT31;62438;52.228;6.864;2023-01-09T03:24:12;5.72;98.78
74081;SHT31;62438;52.228;6.864;2023-01-09T03:26:12;5.68;99.04
74081;SHT31;62438;52.228;6.864;2023-01-09T03:28:33;5.61;99.12
74081;SHT31;62438;52.228;6.864;2023-01-09T03:30:35;5.58;99.10
74081;SHT31;62438;52.228;6.864;2023-01-09T03:32:35;5.55;99.14
74081;SHT31;62438;52.228;6.864;2023-01-09T03:34:36;5.56;98.91
74081;SHT31;62438;52.228;6.864;2023-01-09T03:36:37;5.52;99.00
74081;SHT31;62438;52.228;6.864;2023-01-09T03:38:38;5.51;99.15
74081;SHT31;62438;52.228;6.864;2023-01-09T03:40:40;5.44;99.40
74081;SHT31;62438;52.228;6.864;2023-01-09T03:42:42;5.45;99.13
74081;SHT31;62438;52.228;6.864;2023-01-09T03:44:42;5.40;99.14
74081;SHT31;62438;52.228;6.864;2023-01-09T03:46:43;5.32;99.34
74081;SHT31;62438;52.228;6.864;2023-01-09T03:48:43;5.30;99.35
74081;SHT31;62438;52.228;6.864;2023-01-09T03:50:44;5.34;99.45
74081;SHT31;62438;52.228;6.864;2023-01-09T03:52:45;5.34;99.22
74081;SHT31;62438;52.228;6.864;2023-01-09T03:54:45;5.26;99.45
74081;SHT31;62438;52.228;6.864;2023-01-09T03:56:45;5.24;99.58
74081;SHT31;62438;52.228;6.864;2023-01-09T03:58:46;5.16;99.66
74081;SHT31;62438;52.228;6.864;2023-01-09T04:00:49;5.21;99.79
74081;SHT31;62438;52.228;6.864;2023-01-09T04:02:50;5.23;99.68
74081;SHT31;62438;52.228;6.864;2023-01-09T04:04:53;5.17;99.67
74081;SHT31;62438;52.228;6.864;2023-01-09T04:06:54;5.19;99.76
74081;SHT31;62438;52.228;6.864;2023-01-09T04:08:55;5.19;99.72
74081;SHT31;62438;52.228;6.864;2023-01-09T04:10:55;5.11;99.82
74081;SHT31;62438;52.228;6.864;2023-01-09T04:12:56;5.10;99.89
74081;SHT31;62438;52.228;6.864;2023-01-09T04:14:57;5.09;99.95
74081;SHT31;62438;52.228;6.864;2023-01-09T04:16:57;5.07;99.94
74081;SHT31;62438;52.228;6.864;2023-01-09T04:18:59;5.10;99.74
74081;SHT31;62438;52.228;6.864;2023-01-09T04:20:59;5.04;99.87
74081;SHT31;62438;52.228;6.864;2023-01-09T04:23:00;4.97;99.99
74081;SHT31;62438;52.228;6.864;2023-01-09T04:25:01;4.89;99.99
74081;SHT31;62438;52.228;6.864;2023-01-09T04:27:01;4.77;99.99
74081;SHT31;62438;52.228;6.864;2023-01-09T04:29:02;4.83;99.99
74081;SHT31;62438;52.228;6.864;2023-01-09T04:31:02;4.80;99.99
74081;SHT31;62438;52.228;6.864;2023-01-09T04:33:04;4.79;99.99
74081;SHT31;62438;52.228;6.864;2023-01-09T04:35:05;4.77;99.99
74081;SHT31;62438;52.228;6.864;2023-01-09T04:37:06;4.84;99.99
74081;SHT31;62438;52.228;6.864;2023-01-09T04:39:06;4.80;99.99
74081;SHT31;62438;52.228;6.864;2023-01-09T04:41:07;4.80;99.99
74081;SHT31;62438;52.228;6.864;2023-01-09T04:43:07;4.77;99.99
74081;SHT31;62438;52.228;6.864;2023-01-09T04:45:09;4.75;99.99
74081;SHT31;62438;52.228;6.864;2023-01-09T04:47:10;4.76;99.99
74081;SHT31;62438;52.228;6.864;2023-01-09T04:49:13;4.77;99.99
74081;SHT31;62438;52.228;6.864;2023-01-09T04:51:13;4.73;99.99
74081;SHT31;62438;52.228;6.864;2023-01-09T04:53:13;4.70;99.99
74081;SHT31;62438;52.228;6.864;2023-01-09T04:55:14;4.75;99.99
74081;SHT31;62438;52.228;6.864;2023-01-09T04:57:14;4.66;99.99
74081;SHT31;62438;52.228;6.864;2023-01-09T04:59:15;4.66;99.99
74081;SHT31;62438;52.228;6.864;2023-01-09T05:01:16;4.62;99.99
74081;SHT31;62438;52.228;6.864;2023-01-09T05:03:16;4.62;99.99
74081;SHT31;62438;52.228;6.864;2023-01-09T05:05:17;4.61;99.99
74081;SHT31;62438;52.228;6.864;2023-01-09T05:07:17;4.59;99.99
74081;SHT31;62438;52.228;6.864;2023-01-09T05:09:18;4.59;99.99
74081;SHT31;62438;52.228;6.864;2023-01-09T05:11:18;4.66;99.99
74081;SHT31;62438;52.228;6.864;2023-01-09T05:13:19;4.62;99.99
74081;SHT31;62438;52.228;6.864;2023-01-09T05:15:19;4.68;99.99
74081;SHT31;62438;52.228;6.864;2023-01-09T05:17:20;4.63;99.99
74081;SHT31;62438;52.228;6.864;2023-01-09T05:19:21;4.62;99.99
74081;SHT31;62438;52.228;6.864;2023-01-09T05:21:24;4.61;99.99
74081;SHT31;62438;52.228;6.864;2023-01-09T05:23:25;4.61;99.99
74081;SHT31;62438;52.228;6.864;2023-01-09T05:25:26;4.63;99.99
74081;SHT31;62438;52.228;6.864;2023-01-09T05:27:26;4.65;99.99
74081;SHT31;62438;52.228;6.864;2023-01-09T05:29:27;4.63;99.99
74081;SHT31;62438;52.228;6.864;2023-01-09T05:31:28;4.68;99.99
74081;SHT31;62438;52.228;6.864;2023-01-09T05:33:28;4.70;99.99
74081;SHT31;62438;52.228;6.864;2023-01-09T05:35:29;4.72;99.99
74081;SHT31;62438;52.228;6.864;2023-01-09T05:37:29;4.70;99.99
74081;SHT31;62438;52.228;6.864;2023-01-09T05:39:32;4.69;99.99
74081;SHT31;62438;52.228;6.864;2023-01-09T05:41:33;4.62;99.99
74081;SHT31;62438;52.228;6.864;2023-01-09T05:43:33;4.63;99.99
74081;SHT31;62438;52.228;6.864;2023-01-09T05:45:34;4.73;99.99
74081;SHT31;62438;52.228;6.864;2023-01-09T05:47:35;4.68;99.99
74081;SHT31;62438;52.228;6.864;2023-01-09T05:49:38;4.69;99.99
74081;SHT31;62438;52.228;6.864;2023-01-09T05:51:39;4.73;99.99
74081;SHT31;62438;52.228;6.864;2023-01-09T05:53:39;4.77;99.99
74081;SHT31;62438;52.228;6.864;2023-01-09T05:55:39;4.72;99.99
74081;SHT31;62438;52.228;6.864;2023-01-09T05:57:40;4.75;99.99
74081;SHT31;62438;52.228;6.864;2023-01-09T05:59:40;4.80;99.99
74081;SHT31;62438;52.228;6.864;2023-01-09T06:01:41;4.87;99.66
74081;SHT31;62438;52.228;6.864;2023-01-09T06:03:41;4.94;99.78
74081;SHT31;62438;52.228;6.864;2023-01-09T06:05:41;4.99;99.55
74081;SHT31;62438;52.228;6.864;2023-01-09T06:07:42;5.01;99.33
74081;SHT31;62438;52.228;6.864;2023-01-09T06:09:43;5.04;99.37
74081;SHT31;62438;52.228;6.864;2023-01-09T06:11:44;5.13;99.09
74081;SHT31;62438;52.228;6.864;2023-01-09T06:13:44;5.17;99.14
74081;SHT31;62438;52.228;6.864;2023-01-09T06:15:46;5.17;99.16
74081;SHT31;62438;52.228;6.864;2023-01-09T06:17:47;5.21;98.98
74081;SHT31;62438;52.228;6.864;2023-01-09T06:19:48;5.28;98.76
74081;SHT31;62438;52.228;6.864;2023-01-09T06:21:48;5.37;98.45
74081;SHT31;62438;52.228;6.864;2023-01-09T06:23:48;5.38;98.15
74081;SHT31;62438;52.228;6.864;2023-01-09T06:25:49;5.38;98.38
74081;SHT31;62438;52.228;6.864;2023-01-09T06:27:49;5.47;97.91
74081;SHT31;62438;52.228;6.864;2023-01-09T06:29:51;5.47;98.21
74081;SHT31;62438;52.228;6.864;2023-01-09T06:31:51;5.54;97.81
74081;SHT31;62438;52.228;6.864;2023-01-09T06:33:54;5.54;97.59
74081;SHT31;62438;52.228;6.864;2023-01-09T06:35:55;5.55;98.01
74081;SHT31;62438;52.228;6.864;2023-01-09T06:37:55;5.66;97.05
74081;SHT31;62438;52.228;6.864;2023-01-09T06:39:56;5.65;97.05
74081;SHT31;62438;52.228;6.864;2023-01-09T06:41:56;5.66;97.18
74081;SHT31;62438;52.228;6.864;2023-01-09T06:43:57;5.63;97.21
74081;SHT31;62438;52.228;6.864;2023-01-09T06:45:57;5.65;97.61
74081;SHT31;62438;52.228;6.864;2023-01-09T06:47:58;5.63;97.73
74081;SHT31;62438;52.228;6.864;2023-01-09T06:49:58;5.66;97.43
74081;SHT31;62438;52.228;6.864;2023-01-09T06:51:59;5.73;96.83
74081;SHT31;62438;52.228;6.864;2023-01-09T06:54:04;5.78;96.60
74081;SHT31;62438;52.228;6.864;2023-01-09T06:56:05;5.76;96.95
74081;SHT31;62438;52.228;6.864;2023-01-09T06:58:05;5.78;97.04
74081;SHT31;62438;52.228;6.864;2023-01-09T07:00:06;5.83;96.64
74081;SHT31;62438;52.228;6.864;2023-01-09T07:02:16;5.86;96.81
74081;SHT31;62438;52.228;6.864;2023-01-09T07:04:17;5.83;96.97
74081;SHT31;62438;52.228;6.864;2023-01-09T07:06:23;5.80;97.02
74081;SHT31;62438;52.228;6.864;2023-01-09T07:08:27;5.80;97.27
74081;SHT31;62438;52.228;6.864;2023-01-09T07:10:28;5.86;96.59
74081;SHT31;62438;52.228;6.864;2023-01-09T07:12:28;5.88;96.51
74081;SHT31;62438;52.228;6.864;2023-01-09T07:14:28;5.86;96.98
74081;SHT31;62438;52.228;6.864;2023-01-09T07:16:29;5.88;96.78
74081;SHT31;62438;52.228;6.864;2023-01-09T07:18:30;5.95;96.43
74081;SHT31;62438;52.228;6.864;2023-01-09T07:20:31;5.92;96.28
74081;SHT31;62438;52.228;6.864;2023-01-09T07:22:31;5.92;96.62
74081;SHT31;62438;52.228;6.864;2023-01-09T07:24:31;5.93;96.41
74081;SHT31;62438;52.228;6.864;2023-01-09T07:26:32;5.95;96.48
74081;SHT31;62438;52.228;6.864;2023-01-09T07:28:32;5.93;96.45
74081;SHT31;62438;52.228;6.864;2023-01-09T07:30:33;5.96;96.34
74081;SHT31;62438;52.228;6.864;2023-01-09T07:32:34;5.99;96.22
74081;SHT31;62438;52.228;6.864;2023-01-09T07:34:34;5.95;96.49
74081;SHT31;62438;52.228;6.864;2023-01-09T07:36:35;5.96;96.47
74081;SHT31;62438;52.228;6.864;2023-01-09T07:38:35;6.03;96.15
74081;SHT31;62438;52.228;6.864;2023-01-09T07:40:36;5.98;96.46
74081;SHT31;62438;52.228;6.864;2023-01-09T07:42:37;6.03;95.81
74081;SHT31;62438;52.228;6.864;2023-01-09T07:44:38;6.07;95.94
74081;SHT31;62438;52.228;6.864;2023-01-09T07:46:40;6.10;95.73
74081;SHT31;62438;52.228;6.864;2023-01-09T07:48:45;6.17;95.51
74081;SHT31;62438;52.228;6.864;2023-01-09T07:50:47;6.20;95.17
74081;SHT31;62438;52.228;6.864;2023-01-09T07:52:48;6.14;95.51
74081;SHT31;62438;52.228;6.864;2023-01-09T07:54:48;6.17;95.98
74081;SHT31;62438;52.228;6.864;2023-01-09T07:56:49;6.20;95.53
74081;SHT31;62438;52.228;6.864;2023-01-09T07:58:49;6.21;96.04
74081;SHT31;62438;52.228;6.864;2023-01-09T08:00:50;6.23;95.78
74081;SHT31;62438;52.228;6.864;2023-01-09T08:02:51;6.20;95.88
74081;SHT31;62438;52.228;6.864;2023-01-09T08:04:52;6.20;96.45
74081;SHT31;62438;52.228;6.864;2023-01-09T08:06:56;6.23;95.96
74081;SHT31;62438;52.228;6.864;2023-01-09T08:08:58;6.19;96.37
74081;SHT31;62438;52.228;6.864;2023-01-09T08:10:58;6.26;96.14
74081;SHT31;62438;52.228;6.864;2023-01-09T08:12:59;6.23;96.36
74081;SHT31;62438;52.228;6.864;2023-01-09T08:14:59;6.28;95.76
74081;SHT31;62438;52.228;6.864;2023-01-09T08:17:00;6.26;96.32
74081;SHT31;62438;52.228;6.864;2023-01-09T08:19:01;6.21;96.48
74081;SHT31;62438;52.228;6.864;2023-01-09T08:21:02;6.26;96.70
74081;SHT31;62438;52.228;6.864;2023-01-09T08:23:02;6.31;96.01
74081;SHT31;62438;52.228;6.864;2023-01-09T08:25:03;6.27;96.36
74081;SHT31;62438;52.228;6.864;2023-01-09T08:27:04;6.37;95.93
74081;SHT31;62438;52.228;6.864;2023-01-09T08:29:04;6.34;96.13
74081;SHT31;62438;52.228;6.864;2023-01-09T08:31:05;6.38;95.67
74081;SHT31;62438;52.228;6.864;2023-01-09T08:33:06;6.42;95.66
74081;SHT31;62438;52.228;6.864;2023-01-09T08:35:07;6.38;96.06
74081;SHT31;62438;52.228;6.864;2023-01-09T08:37:08;6.44;95.55
74081;SHT31;62438;52.228;6.864;2023-01-09T08:39:08;6.47;95.59
74081;SHT31;62438;52.228;6.864;2023-01-09T08:41:09;6.48;95.19
74081;SHT31;62438;52.228;6.864;2023-01-09T08:43:28;6.42;96.22
74081;SHT31;62438;52.228;6.864;2023-01-09T08:45:47;6.47;95.95
74081;SHT31;62438;52.228;6.864;2023-01-09T08:48:06;6.42;96.72
74081;SHT31;62438;52.228;6.864;2023-01-09T08:50:07;6.42;96.73
74081;SHT31;62438;52.228;6.864;2023-01-09T08:52:07;6.44;97.24
74081;SHT31;62438;52.228;6.864;2023-01-09T08:54:08;6.38;97.69
74081;SHT31;62438;52.228;6.864;2023-01-09T08:56:08;6.40;97.39
74081;SHT31;62438;52.228;6.864;2023-01-09T08:58:09;6.37;97.56
74081;SHT31;62438;52.228;6.864;2023-01-09T09:00:10;6.37;97.49
74081;SHT31;62438;52.228;6.864;2023-01-09T09:02:11;6.38;97.63
74081;SHT31;62438;52.228;6.864;2023-01-09T09:04:11;6.33;98.11
74081;SHT31;62438;52.228;6.864;2023-01-09T09:06:12;6.31;98.07
74081;SHT31;62438;52.228;6.864;2023-01-09T09:08:12;6.31;98.38
74081;SHT31;62438;52.228;6.864;2023-01-09T09:10:15;6.28;98.41
74081;SHT31;62438;52.228;6.864;2023-01-09T09:12:15;6.33;98.49
74081;SHT31;62438;52.228;6.864;2023-01-09T09:14:16;6.30;99.01
74081;SHT31;62438;52.228;6.864;2023-01-09T09:16:35;6.31;98.93
74081;SHT31;62438;52.228;6.864;2023-01-09T09:18:36;6.31;99.20
74081;SHT31;62438;52.228;6.864;2023-01-09T09:20:37;6.30;99.02
74081;SHT31;62438;52.228;6.864;2023-01-09T09:22:38;6.34;99.04
74081;SHT31;62438;52.228;6.864;2023-01-09T09:24:38;6.33;99.15
74081;SHT31;62438;52.228;6.864;2023-01-09T09:26:39;6.33;99.38
74081;SHT31;62438;52.228;6.864;2023-01-09T09:28:39;6.37;99.07
74081;SHT31;62438;52.228;6.864;2023-01-09T09:30:40;6.34;99.31
74081;SHT31;62438;52.228;6.864;2023-01-09T09:32:42;6.34;99.07
74081;SHT31;62438;52.228;6.864;2023-01-09T09:34:42;6.37;99.19
74081;SHT31;62438;52.228;6.864;2023-01-09T09:36:43;6.34;99.16
74081;SHT31;62438;52.228;6.864;2023-01-09T09:38:43;6.38;98.05
74081;SHT31;62438;52.228;6.864;2023-01-09T09:46:23;6.33;98.40
74081;SHT31;62438;52.228;6.864;2023-01-09T09:48:36;6.33;98.05
74081;SHT31;62438;52.228;6.864;2023-01-09T09:55:18;6.31;97.78
74081;SHT31;62438;52.228;6.864;2023-01-09T09:57:24;6.28;98.24
74081;SHT31;62438;52.228;6.864;2023-01-09T09:59:33;6.34;98.17
74081;SHT31;62438;52.228;6.864;2023-01-09T10:03:40;6.31;98.95
74081;SHT31;62438;52.228;6.864;2023-01-09T10:05:44;6.33;99.01
74081;SHT31;62438;52.228;6.864;2023-01-09T10:07:49;6.34;99.63
74081;SHT31;62438;52.228;6.864;2023-01-09T10:09:52;6.37;99.33
74081;SHT31;62438;52.228;6.864;2023-01-09T10:14:16;6.51;98.79
74081;SHT31;62438;52.228;6.864;2023-01-09T10:20:59;6.57;98.92
74081;SHT31;62438;52.228;6.864;2023-01-09T10:25:48;6.63;98.95
74081;SHT31;62438;52.228;6.864;2023-01-09T10:34:43;6.75;98.31
74081;SHT31;62438;52.228;6.864;2023-01-09T10:37:07;6.77;98.14
74081;SHT31;62438;52.228;6.864;2023-01-09T10:39:14;6.75;98.50
74081;SHT31;62438;52.228;6.864;2023-01-09T10:43:45;6.59;99.22
74081;SHT31;62438;52.228;6.864;2023-01-09T10:45:53;6.57;99.87
74081;SHT31;62438;52.228;6.864;2023-01-09T10:48:03;6.55;99.87
74081;SHT31;62438;52.228;6.864;2023-01-09T10:50:27;6.58;99.15
74081;SHT31;62438;52.228;6.864;2023-01-09T10:52:34;6.59;99.02
74081;SHT31;62438;52.228;6.864;2023-01-09T10:55:02;6.61;99.06
74081;SHT31;62438;52.228;6.864;2023-01-09T10:57:25;6.63;98.67
74081;SHT31;62438;52.228;6.864;2023-01-09T10:59:28;6.61;99.09
74081;SHT31;62438;52.228;6.864;2023-01-09T11:01:36;6.64;98.85
74081;SHT31;62438;52.228;6.864;2023-01-09T11:03:38;6.68;98.19
74081;SHT31;62438;52.228;6.864;2023-01-09T11:05:40;6.72;98.31
74081;SHT31;62438;52.228;6.864;2023-01-09T11:07:44;6.74;98.15
74081;SHT31;62438;52.228;6.864;2023-01-09T11:10:00;6.79;97.39
74081;SHT31;62438;52.228;6.864;2023-01-09T11:12:28;6.81;97.67
74081;SHT31;62438;52.228;6.864;2023-01-09T11:14:28;6.84;97.23
74081;SHT31;62438;52.228;6.864;2023-01-09T11:16:32;6.86;97.42
74081;SHT31;62438;52.228;6.864;2023-01-09T11:18:34;6.85;97.70
74081;SHT31;62438;52.228;6.864;2023-01-09T11:20:36;6.82;97.89
74081;SHT31;62438;52.228;6.864;2023-01-09T11:22:44;6.82;97.47
74081;SHT31;62438;52.228;6.864;2023-01-09T11:24:59;6.81;97.78
74081;SHT31;62438;52.228;6.864;2023-01-09T11:29:22;6.84;97.31
74081;SHT31;62438;52.228;6.864;2023-01-09T11:31:25;6.82;97.63
74081;SHT31;62438;52.228;6.864;2023-01-09T11:33:37;6.81;98.33
74081;SHT31;62438;52.228;6.864;2023-01-09T11:38:15;6.81;98.49
74081;SHT31;62438;52.228;6.864;2023-01-09T11:40:20;6.79;98.96
74081;SHT31;62438;52.228;6.864;2023-01-09T11:42:26;6.71;95.46
74081;SHT31;62438;52.228;6.864;2023-01-09T11:44:45;6.63;97.14
74081;SHT31;62438;52.228;6.864;2023-01-09T11:46:45;6.54;95.02
74081;SHT31;62438;52.228;6.864;2023-01-09T11:48:53;6.42;95.80
74081;SHT31;62438;52.228;6.864;2023-01-09T11:50:58;6.33;95.67
74081;SHT31;62438;52.228;6.864;2023-01-09T11:53:16;6.28;95.41
74081;SHT31;62438;52.228;6.864;2023-01-09T11:55:18;6.19;95.75
74081;SHT31;62438;52.228;6.864;2023-01-09T11:57:20;6.13;96.56
74081;SHT31;62438;52.228;6.864;2023-01-09T11:59:31;6.13;95.95
74081;SHT31;62438;52.228;6.864;2023-01-09T12:01:46;6.10;97.08
74081;SHT31;62438;52.228;6.864;2023-01-09T12:13:06;6.13;97.55
74081;SHT31;62438;52.228;6.864;2023-01-09T12:15:37;6.14;97.10
74081;SHT31;62438;52.228;6.864;2023-01-09T12:25:02;6.31;98.97
74081;SHT31;62438;52.228;6.864;2023-01-09T12:41:16;6.40;99.54
74081;SHT31;62438;52.228;6.864;2023-01-09T12:45:54;6.45;99.28
74081;SHT31;62438;52.228;6.864;2023-01-09T12:52:43;6.77;98.25
74081;SHT31;62438;52.228;6.864;2023-01-09T12:55:02;6.77;98.65
74081;SHT31;62438;52.228;6.864;2023-01-09T12:59:33;6.93;98.49
74081;SHT31;62438;52.228;6.864;2023-01-09T13:01:43;7.06;98.56
74081;SHT31;62438;52.228;6.864;2023-01-09T13:04:16;7.20;98.83
74081;SHT31;62438;52.228;6.864;2023-01-09T13:06:20;7.24;98.25
74081;SHT31;62438;52.228;6.864;2023-01-09T13:08:32;7.30;98.01
74081;SHT31;62438;52.228;6.864;2023-01-09T13:10:45;7.24;96.10
74081;SHT31;62438;52.228;6.864;2023-01-09T13:12:48;7.23;96.88
74081;SHT31;62438;52.228;6.864;2023-01-09T13:16:54;7.31;97.19
74081;SHT31;62438;52.228;6.864;2023-01-09T13:18:57;7.33;96.54
74081;SHT31;62438;52.228;6.864;2023-01-09T13:21:00;7.33;96.87
74081;SHT31;62438;52.228;6.864;2023-01-09T13:23:02;7.31;96.81
74081;SHT31;62438;52.228;6.864;2023-01-09T13:25:37;7.28;96.45
74081;SHT31;62438;52.228;6.864;2023-01-09T13:27:39;7.28;97.30
74081;SHT31;62438;52.228;6.864;2023-01-09T13:29:43;7.27;96.15
74081;SHT31;62438;52.228;6.864;2023-01-09T13:34:13;7.31;96.60
74081;SHT31;62438;52.228;6.864;2023-01-09T13:36:38;7.36;96.93
74081;SHT31;62438;52.228;6.864;2023-01-09T13:38:39;7.37;97.04
74081;SHT31;62438;52.228;6.864;2023-01-09T13:40:40;7.36;96.43
74081;SHT31;62438;52.228;6.864;2023-01-09T13:42:40;7.36;97.05
74081;SHT31;62438;52.228;6.864;2023-01-09T13:44:48;7.28;96.22
74081;SHT31;62438;52.228;6.864;2023-01-09T13:46:52;7.30;96.68
74081;SHT31;62438;52.228;6.864;2023-01-09T13:48:54;7.19;96.94
74081;SHT31;62438;52.228;6.864;2023-01-09T14:04:40;7.12;97.14
74081;SHT31;62438;52.228;6.864;2023-01-09T14:06:41;7.16;97.25
74081;SHT31;62438;52.228;6.864;2023-01-09T14:08:44;7.13;97.44
74081;SHT31;62438;52.228;6.864;2023-01-09T14:10:55;7.20;97.26
74081;SHT31;62438;52.228;6.864;2023-01-09T14:12:57;7.16;97.57
74081;SHT31;62438;52.228;6.864;2023-01-09T14:14:59;7.17;97.28
74081;SHT31;62438;52.228;6.864;2023-01-09T14:17:01;7.23;96.99
74081;SHT31;62438;52.228;6.864;2023-01-09T14:21:14;7.24;97.27
74081;SHT31;62438;52.228;6.864;2023-01-09T14:23:23;7.23;96.75
74081;SHT31;62438;52.228;6.864;2023-01-09T14:25:25;7.26;96.75
74081;SHT31;62438;52.228;6.864;2023-01-09T14:28:02;7.28;96.99
74081;SHT31;62438;52.228;6.864;2023-01-09T14:34:36;7.30;96.88
74081;SHT31;62438;52.228;6.864;2023-01-09T14:36:39;7.33;96.41
74081;SHT31;62438;52.228;6.864;2023-01-09T14:43:30;7.44;95.03
74081;SHT31;62438;52.228;6.864;2023-01-09T14:45:33;7.43;94.72
74081;SHT31;62438;52.228;6.864;2023-01-09T14:50:05;7.30;94.91
74081;SHT31;62438;52.228;6.864;2023-01-09T14:52:21;7.28;94.93
74081;SHT31;62438;52.228;6.864;2023-01-09T14:56:30;7.16;94.95
74081;SHT31;62438;52.228;6.864;2023-01-09T14:58:31;7.10;94.42
74081;SHT31;62438;52.228;6.864;2023-01-09T15:00:34;6.98;95.47
74081;SHT31;62438;52.228;6.864;2023-01-09T15:02:35;7.02;95.16
74081;SHT31;62438;52.228;6.864;2023-01-09T15:04:38;6.93;94.85
74081;SHT31;62438;52.228;6.864;2023-01-09T15:06:41;6.89;95.03
74081;SHT31;62438;52.228;6.864;2023-01-09T15:08:46;6.89;94.54
74081;SHT31;62438;52.228;6.864;2023-01-09T15:10:52;6.86;94.29
74081;SHT31;62438;52.228;6.864;2023-01-09T15:12:55;6.79;95.64
74081;SHT31;62438;52.228;6.864;2023-01-09T15:14:59;6.77;95.46
74081;SHT31;62438;52.228;6.864;2023-01-09T15:17:01;6.75;94.61
74081;SHT31;62438;52.228;6.864;2023-01-09T15:19:05;6.69;94.95
74081;SHT31;62438;52.228;6.864;2023-01-09T15:21:16;6.67;95.12
74081;SHT31;62438;52.228;6.864;2023-01-09T15:23:23;6.65;94.71
74081;SHT31;62438;52.228;6.864;2023-01-09T15:25:29;6.63;95.28
74081;SHT31;62438;52.228;6.864;2023-01-09T15:27:30;6.63;95.14
74081;SHT31;62438;52.228;6.864;2023-01-09T15:29:31;6.61;94.99
74081;SHT31;62438;52.228;6.864;2023-01-09T15:31:31;6.58;94.99
74081;SHT31;62438;52.228;6.864;2023-01-09T15:33:32;6.55;95.20
74081;SHT31;62438;52.228;6.864;2023-01-09T15:35:33;6.59;94.85
74081;SHT31;62438;52.228;6.864;2023-01-09T15:37:36;6.55;95.47